Decota, West Virginia
Current Conditions -  °F | °C
As of 6:54 AM on Monday 20 Oct 2014 (Local Time) from KCRW Reporting Station
Haze Haze  
Wind Chill: 36°   Ceiling: Unl
Heat Index: 36°   Visibility: 2mi
Dew Point: 36°   Wind: 0mph
Humidity: 100%   Direction: NA
Pressure: 30.07"   Gusts: NA
Location:  38.0912°N, 81.4436°W
Report Text: KCRW 201054Z 00000KT 2SM BR SCT001 02/02 A3007 RMK AO2 SLP184 DNS VLY FG T00220022 $
Loading
Personal Weather Stations






























Interactive Weather Map
Tropical Storm Tracking
New forecast layout! Learn more

10-Day Weather Forecast

Advertisements
Track Severe Weather on mobile